sensor_id;sensor_type;location;lat;lon;timestamp;pressure;altitude;pressure_sealevel;temperature;humidity
7474;BME280;3778;42.572;23.426;2023-02-17T00:02:20;95616.47;;;-146.70;71.39
7474;BME280;3778;42.572;23.426;2023-02-17T00:04:46;95570.63;;;-146.70;71.51
7474;BME280;3778;42.572;23.426;2023-02-17T00:07:14;95578.97;;;-146.70;71.71
7474;BME280;3778;42.572;23.426;2023-02-17T00:09:41;95603.97;;;-146.70;72.02
7474;BME280;3778;42.572;23.426;2023-02-17T00:12:08;95535.19;;;-146.70;72.27
7474;BME280;3778;42.572;23.426;2023-02-17T00:14:35;95591.47;;;-146.70;72.68
7474;BME280;3778;42.572;23.426;2023-02-17T00:17:02;95566.44;;;-146.70;72.27
7474;BME280;3778;42.572;23.426;2023-02-17T00:19:28;95599.81;;;-146.70;72.13
7474;BME280;3778;42.572;23.426;2023-02-17T00:21:57;95591.47;;;-146.70;72.74
7474;BME280;3778;42.572;23.426;2023-02-17T00:24:27;95587.31;;;-146.70;73.11
7474;BME280;3778;42.572;23.426;2023-02-17T00:26:54;95599.81;;;-146.70;72.84
7474;BME280;3778;42.572;23.426;2023-02-17T00:29:21;95572.72;;;-146.70;72.66
7474;BME280;3778;42.572;23.426;2023-02-17T00:31:48;95606.06;;;-146.70;72.73
7474;BME280;3778;42.572;23.426;2023-02-17T00:34:16;95614.41;;;-146.70;72.90
7474;BME280;3778;42.572;23.426;2023-02-17T00:36:42;95608.16;;;-146.70;72.82
7474;BME280;3778;42.572;23.426;2023-02-17T00:39:11;95572.72;;;-146.70;72.97
7474;BME280;3778;42.572;23.426;2023-02-17T00:41:40;95620.66;;;-146.70;72.97
7474;BME280;3778;42.572;23.426;2023-02-17T00:44:09;95570.63;;;-146.70;72.73
7474;BME280;3778;42.572;23.426;2023-02-17T00:46:40;95662.34;;;-146.70;72.90
7474;BME280;3778;42.572;23.426;2023-02-17T00:49:07;95612.31;;;-146.70;73.10
7474;BME280;3778;42.572;23.426;2023-02-17T00:51:35;95574.78;;;-146.70;73.02
7474;BME280;3778;42.572;23.426;2023-02-17T00:54:01;95606.06;;;-146.70;73.13
7474;BME280;3778;42.572;23.426;2023-02-17T00:56:28;95612.31;;;-146.70;72.87
7474;BME280;3778;42.572;23.426;2023-02-17T00:58:56;95676.94;;;-146.70;72.76
7474;BME280;3778;42.572;23.426;2023-02-17T01:01:23;95608.16;;;-146.70;73.07
7474;BME280;3778;42.572;23.426;2023-02-17T01:03:49;95616.47;;;-146.70;72.95
7474;BME280;3778;42.572;23.426;2023-02-17T01:06:21;95645.66;;;-146.70;73.23
7474;BME280;3778;42.572;23.426;2023-02-17T01:08:48;95566.44;;;-146.70;72.97
7474;BME280;3778;42.572;23.426;2023-02-17T01:11:16;95656.09;;;-146.70;73.29
7474;BME280;3778;42.572;23.426;2023-02-17T01:13:43;95637.31;;;-146.70;73.64
7474;BME280;3778;42.572;23.426;2023-02-17T01:16:16;95676.94;;;-146.70;73.96
7474;BME280;3778;42.572;23.426;2023-02-17T01:18:43;95647.75;;;-146.70;74.11
7474;BME280;3778;42.572;23.426;2023-02-17T01:21:15;95651.91;;;-146.70;74.09
7474;BME280;3778;42.572;23.426;2023-02-17T01:23:42;95581.03;;;-146.70;74.09
7474;BME280;3778;42.572;23.426;2023-02-17T01:26:12;95674.84;;;-146.70;74.25
7474;BME280;3778;42.572;23.426;2023-02-17T01:28:39;95603.97;;;-146.70;74.36
7474;BME280;3778;42.572;23.426;2023-02-17T01:31:06;95620.66;;;-146.70;74.37
7474;BME280;3778;42.572;23.426;2023-02-17T01:33:34;95687.34;;;-146.70;73.87
7474;BME280;3778;42.572;23.426;2023-02-17T01:36:01;95622.72;;;-146.70;73.93
7474;BME280;3778;42.572;23.426;2023-02-17T01:38:28;95612.31;;;-146.70;73.79
7474;BME280;3778;42.572;23.426;2023-02-17T01:40:55;95587.31;;;-146.70;74.07
7474;BME280;3778;42.572;23.426;2023-02-17T01:43:22;95618.56;;;-146.70;73.85
7474;BME280;3778;42.572;23.426;2023-02-17T01:45:50;95624.81;;;-146.70;73.58
7474;BME280;3778;42.572;23.426;2023-02-17T01:48:20;95656.09;;;-146.70;73.53
7474;BME280;3778;42.572;23.426;2023-02-17T01:50:51;95643.56;;;-146.70;73.47
7474;BME280;3778;42.572;23.426;2023-02-17T01:53:21;95610.22;;;-146.70;73.53
7474;BME280;3778;42.572;23.426;2023-02-17T01:55:50;95608.16;;;-146.70;73.13
7474;BME280;3778;42.572;23.426;2023-02-17T01:58:19;95587.31;;;-146.70;72.49
7474;BME280;3778;42.572;23.426;2023-02-17T02:00:49;95679.00;;;-146.70;72.88
7474;BME280;3778;42.572;23.426;2023-02-17T02:03:17;95629.00;;;-146.70;73.55
7474;BME280;3778;42.572;23.426;2023-02-17T02:05:44;95639.41;;;-146.70;73.39
7474;BME280;3778;42.572;23.426;2023-02-17T02:08:13;95629.00;;;-146.70;73.26
7474;BME280;3778;42.572;23.426;2023-02-17T02:10:40;95681.09;;;-146.70;73.44
7474;BME280;3778;42.572;23.426;2023-02-17T02:13:07;95620.66;;;-146.70;73.54
7474;BME280;3778;42.572;23.426;2023-02-17T02:15:38;95654.00;;;-146.70;73.32
7474;BME280;3778;42.572;23.426;2023-02-17T02:18:19;95616.47;;;-146.70;73.69
7474;BME280;3778;42.572;23.426;2023-02-17T02:24:04;95672.75;;;-146.70;73.90
7474;BME280;3778;42.572;23.426;2023-02-17T02:30:16;95629.00;;;-146.70;73.70
7474;BME280;3778;42.572;23.426;2023-02-17T02:32:55;95656.09;;;-146.70;73.77
7474;BME280;3778;42.572;23.426;2023-02-17T02:35:28;95689.44;;;-146.70;74.25
7474;BME280;3778;42.572;23.426;2023-02-17T02:38:00;95670.69;;;-146.70;74.68
7474;BME280;3778;42.572;23.426;2023-02-17T02:40:30;95626.91;;;-146.70;74.27
7474;BME280;3778;42.572;23.426;2023-02-17T02:43:00;95679.00;;;-146.70;73.76
7474;BME280;3778;42.572;23.426;2023-02-17T02:45:27;95631.06;;;-146.70;73.33
7474;BME280;3778;42.572;23.426;2023-02-17T02:47:57;95558.13;;;-146.70;73.31
7474;BME280;3778;42.572;23.426;2023-02-17T02:50:30;95633.16;;;-146.70;73.09
7474;BME280;3778;42.572;23.426;2023-02-17T02:53:11;95645.66;;;-146.70;72.77
7474;BME280;3778;42.572;23.426;2023-02-17T02:55:52;95620.66;;;-146.70;72.78
7474;BME280;3778;42.572;23.426;2023-02-17T02:58:21;95666.50;;;-146.70;72.83
7474;BME280;3778;42.572;23.426;2023-02-17T03:00:56;95647.75;;;-146.70;74.31
7474;BME280;3778;42.572;23.426;2023-02-17T03:03:30;95616.47;;;-146.70;74.87
7474;BME280;3778;42.572;23.426;2023-02-17T03:06:06;95645.66;;;-146.70;74.72
7474;BME280;3778;42.572;23.426;2023-02-17T03:08:38;95654.00;;;-146.70;74.59
7474;BME280;3778;42.572;23.426;2023-02-17T03:11:08;95649.84;;;-146.70;74.07
7474;BME280;3778;42.572;23.426;2023-02-17T03:13:35;95645.66;;;-146.70;73.66
7474;BME280;3778;42.572;23.426;2023-02-17T03:16:05;95637.31;;;-146.70;73.61
7474;BME280;3778;42.572;23.426;2023-02-17T03:18:34;95624.81;;;-146.70;73.13
7474;BME280;3778;42.572;23.426;2023-02-17T03:21:03;95629.00;;;-146.70;73.05
7474;BME280;3778;42.572;23.426;2023-02-17T03:23:31;95645.66;;;-146.70;73.21
7474;BME280;3778;42.572;23.426;2023-02-17T03:25:58;95685.28;;;-146.70;73.74
7474;BME280;3778;42.572;23.426;2023-02-17T03:28:25;95666.50;;;-146.70;73.79
7474;BME280;3778;42.572;23.426;2023-02-17T03:30:51;95668.59;;;-146.70;73.57
7474;BME280;3778;42.572;23.426;2023-02-17T03:33:18;95674.84;;;-146.70;73.84
7474;BME280;3778;42.572;23.426;2023-02-17T03:35:47;95616.47;;;-146.70;73.87
7474;BME280;3778;42.572;23.426;2023-02-17T03:38:13;95695.69;;;-146.70;73.56
7474;BME280;3778;42.572;23.426;2023-02-17T03:40:40;95674.84;;;-146.70;73.52
7474;BME280;3778;42.572;23.426;2023-02-17T03:43:07;95674.84;;;-146.70;73.83
7474;BME280;3778;42.572;23.426;2023-02-17T03:45:34;95681.09;;;-146.70;74.22
7474;BME280;3778;42.572;23.426;2023-02-17T03:48:01;95683.19;;;-146.70;74.58
7474;BME280;3778;42.572;23.426;2023-02-17T03:50:28;95645.66;;;-146.70;74.60
7474;BME280;3778;42.572;23.426;2023-02-17T03:52:56;95614.41;;;-146.70;74.10
7474;BME280;3778;42.572;23.426;2023-02-17T03:55:23;95674.84;;;-146.70;73.80
7474;BME280;3778;42.572;23.426;2023-02-17T03:57:49;95633.16;;;-146.70;73.59
7474;BME280;3778;42.572;23.426;2023-02-17T04:00:16;95666.50;;;-146.70;73.09
7474;BME280;3778;42.572;23.426;2023-02-17T04:02:43;95664.44;;;-146.70;72.98
7474;BME280;3778;42.572;23.426;2023-02-17T04:05:10;95662.34;;;-146.70;72.57
7474;BME280;3778;42.572;23.426;2023-02-17T04:07:37;95612.31;;;-146.70;72.51
7474;BME280;3778;42.572;23.426;2023-02-17T04:10:06;95729.03;;;-146.70;72.46
7474;BME280;3778;42.572;23.426;2023-02-17T04:12:33;95631.06;;;-146.70;72.60
7474;BME280;3778;42.572;23.426;2023-02-17T04:15:00;95683.19;;;-146.70;73.38
7474;BME280;3778;42.572;23.426;2023-02-17T04:17:27;95662.34;;;-146.70;73.38
7474;BME280;3778;42.572;23.426;2023-02-17T04:19:53;95691.53;;;-146.70;73.16
7474;BME280;3778;42.572;23.426;2023-02-17T04:22:20;95629.00;;;-146.70;73.50
7474;BME280;3778;42.572;23.426;2023-02-17T04:24:47;95618.56;;;-146.70;73.87
7474;BME280;3778;42.572;23.426;2023-02-17T04:27:15;95710.28;;;-146.70;73.82
7474;BME280;3778;42.572;23.426;2023-02-17T04:29:42;95666.50;;;-146.70;73.79
7474;BME280;3778;42.572;23.426;2023-02-17T04:32:08;95691.53;;;-146.70;73.65
7474;BME280;3778;42.572;23.426;2023-02-17T04:34:35;95622.72;;;-146.70;73.39
7474;BME280;3778;42.572;23.426;2023-02-17T04:37:02;95679.00;;;-146.70;73.01
7474;BME280;3778;42.572;23.426;2023-02-17T04:39:28;95645.66;;;-146.70;72.92
7474;BME280;3778;42.572;23.426;2023-02-17T04:41:55;95699.84;;;-146.70;72.62
7474;BME280;3778;42.572;23.426;2023-02-17T04:44:23;95658.16;;;-146.70;72.31
7474;BME280;3778;42.572;23.426;2023-02-17T04:46:50;95624.81;;;-146.70;72.49
7474;BME280;3778;42.572;23.426;2023-02-17T04:49:17;95645.66;;;-146.70;72.86
7474;BME280;3778;42.572;23.426;2023-02-17T04:51:43;95635.25;;;-146.70;73.20
7474;BME280;3778;42.572;23.426;2023-02-17T04:54:10;95616.47;;;-146.70;73.11
7474;BME280;3778;42.572;23.426;2023-02-17T04:56:37;95622.72;;;-146.70;73.36
7474;BME280;3778;42.572;23.426;2023-02-17T04:59:03;95635.25;;;-146.70;73.25
7474;BME280;3778;42.572;23.426;2023-02-17T05:01:31;95660.25;;;-146.70;72.96
7474;BME280;3778;42.572;23.426;2023-02-17T05:03:58;95635.25;;;-146.70;72.83
7474;BME280;3778;42.572;23.426;2023-02-17T05:06:25;95687.34;;;-146.70;73.05
7474;BME280;3778;42.572;23.426;2023-02-17T05:08:51;95639.41;;;-146.70;73.46
7474;BME280;3778;42.572;23.426;2023-02-17T05:11:18;95647.75;;;-146.70;73.61
7474;BME280;3778;42.572;23.426;2023-02-17T05:13:45;95666.50;;;-146.70;73.52
7474;BME280;3778;42.572;23.426;2023-02-17T05:16:11;95666.50;;;-146.70;73.74
7474;BME280;3778;42.572;23.426;2023-02-17T05:18:39;95674.84;;;-146.70;73.88
7474;BME280;3778;42.572;23.426;2023-02-17T05:21:06;95641.50;;;-146.70;74.20
7474;BME280;3778;42.572;23.426;2023-02-17T05:23:33;95662.34;;;-146.70;73.79
7474;BME280;3778;42.572;23.426;2023-02-17T05:26:05;95612.31;;;-146.70;73.26
7474;BME280;3778;42.572;23.426;2023-02-17T05:28:32;95679.00;;;-146.70;73.21
7474;BME280;3778;42.572;23.426;2023-02-17T05:30:59;95685.28;;;-146.70;73.87
7474;BME280;3778;42.572;23.426;2023-02-17T05:33:26;95645.66;;;-146.70;73.61
7474;BME280;3778;42.572;23.426;2023-02-17T05:35:54;95637.31;;;-146.70;73.51
7474;BME280;3778;42.572;23.426;2023-02-17T05:38:21;95672.75;;;-146.70;73.13
7474;BME280;3778;42.572;23.426;2023-02-17T05:40:48;95662.34;;;-146.70;72.77
7474;BME280;3778;42.572;23.426;2023-02-17T05:43:15;95658.16;;;-146.70;72.82
7474;BME280;3778;42.572;23.426;2023-02-17T05:45:42;95664.44;;;-146.70;72.68
7474;BME280;3778;42.572;23.426;2023-02-17T05:48:09;95676.94;;;-146.70;72.70
7474;BME280;3778;42.572;23.426;2023-02-17T05:50:35;95670.69;;;-146.70;72.77
7474;BME280;3778;42.572;23.426;2023-02-17T05:53:03;95635.25;;;-146.70;72.69
7474;BME280;3778;42.572;23.426;2023-02-17T05:55:30;95641.50;;;-146.70;72.48
7474;BME280;3778;42.572;23.426;2023-02-17T05:57:59;95679.00;;;-146.70;72.07
7474;BME280;3778;42.572;23.426;2023-02-17T06:00:26;95624.81;;;-146.70;72.01
7474;BME280;3778;42.572;23.426;2023-02-17T06:02:52;95629.00;;;-146.70;71.85
7474;BME280;3778;42.572;23.426;2023-02-17T06:05:19;95660.25;;;-146.70;72.17
7474;BME280;3778;42.572;23.426;2023-02-17T06:07:46;95639.41;;;-146.70;71.90
7474;BME280;3778;42.572;23.426;2023-02-17T06:10:14;95620.66;;;-146.70;71.57
7474;BME280;3778;42.572;23.426;2023-02-17T06:12:41;95622.72;;;-146.70;71.11
7474;BME280;3778;42.572;23.426;2023-02-17T06:15:08;95656.09;;;-146.70;71.41
7474;BME280;3778;42.572;23.426;2023-02-17T06:17:34;95649.84;;;-146.70;71.36
7474;BME280;3778;42.572;23.426;2023-02-17T06:20:01;95626.91;;;-146.70;71.25
7474;BME280;3778;42.572;23.426;2023-02-17T06:22:28;95645.66;;;-146.70;71.48
7474;BME280;3778;42.572;23.426;2023-02-17T06:24:55;95624.81;;;-146.70;71.09
7474;BME280;3778;42.572;23.426;2023-02-17T06:27:23;95635.25;;;-146.70;70.79
7474;BME280;3778;42.572;23.426;2023-02-17T06:29:50;95606.06;;;-146.70;70.43
7474;BME280;3778;42.572;23.426;2023-02-17T06:32:17;95651.91;;;-146.70;70.21
7474;BME280;3778;42.572;23.426;2023-02-17T06:34:43;95626.91;;;-146.70;70.09
7474;BME280;3778;42.572;23.426;2023-02-17T06:37:10;95572.72;;;-146.70;69.80
7474;BME280;3778;42.572;23.426;2023-02-17T06:39:37;95583.13;;;-146.70;69.52
7474;BME280;3778;42.572;23.426;2023-02-17T06:42:03;95568.53;;;-146.70;69.39
7474;BME280;3778;42.572;23.426;2023-02-17T06:44:31;95629.00;;;-146.70;68.74
7474;BME280;3778;42.572;23.426;2023-02-17T06:46:58;95631.06;;;-146.70;68.49
7474;BME280;3778;42.572;23.426;2023-02-17T06:49:25;95591.47;;;-146.70;68.13
7474;BME280;3778;42.572;23.426;2023-02-17T06:51:51;95626.91;;;-146.70;67.23
7474;BME280;3778;42.572;23.426;2023-02-17T06:54:18;95547.69;;;-146.70;67.13
7474;BME280;3778;42.572;23.426;2023-02-17T06:56:45;95606.06;;;-146.70;66.88
7474;BME280;3778;42.572;23.426;2023-02-17T06:59:12;95539.34;;;-146.70;66.89
7474;BME280;3778;42.572;23.426;2023-02-17T07:01:40;95599.81;;;-146.70;66.79
7474;BME280;3778;42.572;23.426;2023-02-17T07:04:06;95526.84;;;-146.70;66.26
7474;BME280;3778;42.572;23.426;2023-02-17T07:06:33;95533.09;;;-146.70;65.35
7474;BME280;3778;42.572;23.426;2023-02-17T07:09:00;95562.28;;;-146.70;65.22
7474;BME280;3778;42.572;23.426;2023-02-17T07:11:27;95543.53;;;-146.70;64.68
7474;BME280;3778;42.572;23.426;2023-02-17T07:13:55;95495.59;;;-146.70;64.39
7474;BME280;3778;42.572;23.426;2023-02-17T07:16:22;95572.72;;;-146.70;64.14
7474;BME280;3778;42.572;23.426;2023-02-17T07:18:50;95503.91;;;-146.70;64.41
7474;BME280;3778;42.572;23.426;2023-02-17T07:21:17;95472.66;;;-146.70;63.65
7474;BME280;3778;42.572;23.426;2023-02-17T07:23:44;95512.25;;;-146.70;62.92
7474;BME280;3778;42.572;23.426;2023-02-17T07:26:11;95533.09;;;-146.70;62.83
7474;BME280;3778;42.572;23.426;2023-02-17T07:28:38;95485.16;;;-146.70;62.28
7474;BME280;3778;42.572;23.426;2023-02-17T07:31:06;95468.47;;;-146.70;61.99
7474;BME280;3778;42.572;23.426;2023-02-17T07:33:33;95430.97;;;-146.70;61.59
7474;BME280;3778;42.572;23.426;2023-02-17T07:36:04;95485.16;;;-146.70;60.99
7474;BME280;3778;42.572;23.426;2023-02-17T07:38:31;95458.06;;;-146.70;61.06
7474;BME280;3778;42.572;23.426;2023-02-17T07:41:03;95395.53;;;-146.70;60.31
7474;BME280;3778;42.572;23.426;2023-02-17T07:43:29;95393.44;;;-146.70;59.94
7474;BME280;3778;42.572;23.426;2023-02-17T07:45:56;95424.72;;;-146.70;59.43
7474;BME280;3778;42.572;23.426;2023-02-17T07:48:23;95470.56;;;-146.70;59.41
7474;BME280;3778;42.572;23.426;2023-02-17T07:50:49;95328.84;;;-146.70;59.45
7474;BME280;3778;42.572;23.426;2023-02-17T07:53:17;95353.84;;;-146.70;59.61
7474;BME280;3778;42.572;23.426;2023-02-17T07:55:44;95370.53;;;-146.70;58.86
7474;BME280;3778;42.572;23.426;2023-02-17T07:58:11;95368.44;;;-146.70;57.85
7474;BME280;3778;42.572;23.426;2023-02-17T08:00:38;95416.38;;;-146.70;57.88
7474;BME280;3778;42.572;23.426;2023-02-17T08:03:04;95341.34;;;-146.70;56.93
7474;BME280;3778;42.572;23.426;2023-02-17T08:05:31;95308.00;;;-146.70;56.18
7474;BME280;3778;42.572;23.426;2023-02-17T08:07:58;95301.75;;;-146.70;56.87
7474;BME280;3778;42.572;23.426;2023-02-17T08:10:43;95257.97;;;-146.70;56.31
7474;BME280;3778;42.572;23.426;2023-02-17T08:13:27;95260.06;;;-146.70;56.58
7474;BME280;3778;42.572;23.426;2023-02-17T08:15:54;95274.63;;;-146.70;57.08
7474;BME280;3778;42.572;23.426;2023-02-17T08:18:21;95230.88;;;-146.70;56.68
7474;BME280;3778;42.572;23.426;2023-02-17T08:20:48;95247.53;;;-146.70;55.77
7474;BME280;3778;42.572;23.426;2023-02-17T08:23:15;95249.63;;;-146.70;55.71
7474;BME280;3778;42.572;23.426;2023-02-17T08:25:43;95232.97;;;-146.70;54.05
7474;BME280;3778;42.572;23.426;2023-02-17T08:28:11;95124.56;;;-146.70;53.61
7474;BME280;3778;42.572;23.426;2023-02-17T08:30:38;95153.75;;;-146.70;53.26
7474;BME280;3778;42.572;23.426;2023-02-17T08:33:05;95178.75;;;-146.70;51.49
7474;BME280;3778;42.572;23.426;2023-02-17T08:35:32;95153.75;;;-146.70;49.57
7474;BME280;3778;42.572;23.426;2023-02-17T08:37:59;95097.47;;;-146.70;47.92
7474;BME280;3778;42.572;23.426;2023-02-17T08:40:25;95099.56;;;-146.70;49.19
7474;BME280;3778;42.572;23.426;2023-02-17T08:42:53;95103.72;;;-146.70;47.41
7474;BME280;3778;42.572;23.426;2023-02-17T08:45:20;95089.13;;;-146.70;46.77
7474;BME280;3778;42.572;23.426;2023-02-17T08:47:48;95059.97;;;-146.70;46.25
7474;BME280;3778;42.572;23.426;2023-02-17T08:50:15;95030.78;;;-146.70;45.27
7474;BME280;3778;42.572;23.426;2023-02-17T08:52:44;94984.94;;;-146.70;43.69
7474;BME280;3778;42.572;23.426;2023-02-17T08:55:11;94999.53;;;-146.70;44.15
7474;BME280;3778;42.572;23.426;2023-02-17T08:57:37;94991.19;;;-146.70;43.30
7474;BME280;3778;42.572;23.426;2023-02-17T09:00:07;94980.75;;;-146.70;43.72
7474;BME280;3778;42.572;23.426;2023-02-17T09:02:34;94937.00;;;-146.70;43.77
7474;BME280;3778;42.572;23.426;2023-02-17T09:05:02;94955.75;;;-146.70;42.72
7474;BME280;3778;42.572;23.426;2023-02-17T09:07:30;94928.66;;;-146.70;42.20
7474;BME280;3778;42.572;23.426;2023-02-17T09:09:56;94909.91;;;-146.70;42.54
7474;BME280;3778;42.572;23.426;2023-02-17T09:12:23;94884.91;;;-146.70;42.53
7474;BME280;3778;42.572;23.426;2023-02-17T09:14:50;94886.97;;;-146.70;41.80
7474;BME280;3778;42.572;23.426;2023-02-17T09:17:18;94868.22;;;-146.70;41.96
7474;BME280;3778;42.572;23.426;2023-02-17T09:19:44;94882.81;;;-146.70;41.89
7474;BME280;3778;42.572;23.426;2023-02-17T09:22:12;94857.81;;;-146.70;41.44
7474;BME280;3778;42.572;23.426;2023-02-17T09:24:41;94886.97;;;-146.70;41.74
7474;BME280;3778;42.572;23.426;2023-02-17T09:27:08;94843.22;;;-146.70;43.90
7474;BME280;3778;42.572;23.426;2023-02-17T09:29:36;94857.81;;;-146.70;41.08
7474;BME280;3778;42.572;23.426;2023-02-17T09:32:05;94822.38;;;-146.70;41.39
7474;BME280;3778;42.572;23.426;2023-02-17T09:34:34;94832.78;;;-146.70;40.85
7474;BME280;3778;42.572;23.426;2023-02-17T09:37:01;94799.44;;;-146.70;41.68
7474;BME280;3778;42.572;23.426;2023-02-17T09:39:28;94770.28;;;-146.70;40.75
7474;BME280;3778;42.572;23.426;2023-02-17T09:41:55;94803.63;;;-146.70;40.96
7474;BME280;3778;42.572;23.426;2023-02-17T09:44:24;94789.03;;;-146.70;42.08
7474;BME280;3778;42.572;23.426;2023-02-17T09:46:55;94841.13;;;-146.70;41.51
7474;BME280;3778;42.572;23.426;2023-02-17T09:49:25;94784.84;;;-146.70;42.63
7474;BME280;3778;42.572;23.426;2023-02-17T09:51:59;94782.78;;;-146.70;42.40
7474;BME280;3778;42.572;23.426;2023-02-17T09:54:31;94753.59;;;-146.70;40.16
7474;BME280;3778;42.572;23.426;2023-02-17T09:57:05;94732.75;;;-146.70;39.96
7474;BME280;3778;42.572;23.426;2023-02-17T09:59:37;94751.53;;;-146.70;39.47
7474;BME280;3778;42.572;23.426;2023-02-17T10:02:12;94709.84;;;-146.70;39.63
7474;BME280;3778;42.572;23.426;2023-02-17T10:04:42;94720.25;;;-146.70;39.48
7474;BME280;3778;42.572;23.426;2023-02-17T10:07:17;94730.69;;;-146.70;39.53
7474;BME280;3778;42.572;23.426;2023-02-17T10:09:47;94720.25;;;-146.70;39.12
7474;BME280;3778;42.572;23.426;2023-02-17T10:12:18;94714.00;;;-146.70;38.37
7474;BME280;3778;42.572;23.426;2023-02-17T10:14:49;94659.81;;;-146.70;38.30
7474;BME280;3778;42.572;23.426;2023-02-17T10:17:22;94572.28;;;-146.70;38.24
7474;BME280;3778;42.572;23.426;2023-02-17T10:19:53;94643.16;;;-146.70;36.94
7474;BME280;3778;42.572;23.426;2023-02-17T10:22:25;94624.41;;;-146.70;36.42
7474;BME280;3778;42.572;23.426;2023-02-17T10:24:52;94559.78;;;-146.70;36.26
7474;BME280;3778;42.572;23.426;2023-02-17T10:27:35;94566.03;;;-146.70;36.24
7474;BME280;3778;42.572;23.426;2023-02-17T10:30:26;94624.41;;;-146.70;36.03
7474;BME280;3778;42.572;23.426;2023-02-17T10:33:00;94566.03;;;-146.70;36.34
7474;BME280;3778;42.572;23.426;2023-02-17T10:35:37;94588.97;;;-146.70;35.79
7474;BME280;3778;42.572;23.426;2023-02-17T10:38:15;94528.53;;;-146.70;37.01
7474;BME280;3778;42.572;23.426;2023-02-17T10:40:45;94522.28;;;-146.70;35.32
7474;BME280;3778;42.572;23.426;2023-02-17T10:43:20;94524.38;;;-146.70;35.18
7474;BME280;3778;42.572;23.426;2023-02-17T10:45:47;94541.03;;;-146.70;34.65
7474;BME280;3778;42.572;23.426;2023-02-17T10:48:20;94474.34;;;-146.70;34.73
7474;BME280;3778;42.572;23.426;2023-02-17T10:50:48;94459.75;;;-146.70;34.35
7474;BME280;3778;42.572;23.426;2023-02-17T10:53:19;94411.84;;;-146.70;32.76
7474;BME280;3778;42.572;23.426;2023-02-17T10:55:53;94405.59;;;-146.70;32.46
7474;BME280;3778;42.572;23.426;2023-02-17T10:58:26;94468.09;;;-146.70;32.19
7474;BME280;3778;42.572;23.426;2023-02-17T11:00:55;94401.41;;;-146.70;31.63
7474;BME280;3778;42.572;23.426;2023-02-17T11:03:25;94378.50;;;-146.70;31.05
7474;BME280;3778;42.572;23.426;2023-02-17T11:05:54;94455.59;;;-146.70;31.08
7474;BME280;3778;42.572;23.426;2023-02-17T11:08:31;94407.66;;;-146.70;30.76
7474;BME280;3778;42.572;23.426;2023-02-17T11:11:01;94395.16;;;-146.70;30.18
7474;BME280;3778;42.572;23.426;2023-02-17T11:13:35;94426.41;;;-146.70;30.67
7474;BME280;3778;42.572;23.426;2023-02-17T11:16:03;94409.75;;;-146.70;30.88
7474;BME280;3778;42.572;23.426;2023-02-17T11:18:32;94388.91;;;-146.70;30.93
7474;BME280;3778;42.572;23.426;2023-02-17T11:21:05;94345.16;;;-146.70;30.59
7474;BME280;3778;42.572;23.426;2023-02-17T11:23:34;94388.91;;;-146.70;30.44
7474;BME280;3778;42.572;23.426;2023-02-17T11:26:07;94382.66;;;-146.70;31.07
7474;BME280;3778;42.572;23.426;2023-02-17T11:28:34;94386.81;;;-146.70;30.73
7474;BME280;3778;42.572;23.426;2023-02-17T11:31:01;94366.00;;;-146.70;30.71
7474;BME280;3778;42.572;23.426;2023-02-17T11:33:31;94313.91;;;-146.70;30.76
7474;BME280;3778;42.572;23.426;2023-02-17T11:35:58;94324.31;;;-146.70;30.64
7474;BME280;3778;42.572;23.426;2023-02-17T11:38:26;94353.50;;;-146.70;31.21
7474;BME280;3778;42.572;23.426;2023-02-17T11:40:57;94290.97;;;-146.70;30.85
7474;BME280;3778;42.572;23.426;2023-02-17T11:43:24;94320.16;;;-146.70;30.70
7474;BME280;3778;42.572;23.426;2023-02-17T11:46:15;94351.41;;;-146.70;30.58
7474;BME280;3778;42.572;23.426;2023-02-17T11:49:03;94282.63;;;-146.70;30.79
7474;BME280;3778;42.572;23.426;2023-02-17T11:51:42;94261.81;;;-146.70;30.77
7474;BME280;3778;42.572;23.426;2023-02-17T11:54:20;94257.63;;;-146.70;30.25
7474;BME280;3778;42.572;23.426;2023-02-17T11:57:03;94255.56;;;-146.70;30.84
7474;BME280;3778;42.572;23.426;2023-02-17T11:59:43;94249.28;;;-146.70;30.38
7474;BME280;3778;42.572;23.426;2023-02-17T12:02:17;94211.78;;;-146.70;30.25
7474;BME280;3778;42.572;23.426;2023-02-17T12:04:58;94284.72;;;-146.70;30.06
7474;BME280;3778;42.572;23.426;2023-02-17T12:07:39;94247.22;;;-146.70;30.01
7474;BME280;3778;42.572;23.426;2023-02-17T12:10:15;94218.03;;;-146.70;30.01
7474;BME280;3778;42.572;23.426;2023-02-17T12:12:58;94224.28;;;-146.70;30.41
7474;BME280;3778;42.572;23.426;2023-02-17T12:15:40;94193.03;;;-146.70;30.31
7474;BME280;3778;42.572;23.426;2023-02-17T12:18:28;94195.13;;;-146.70;30.35
7474;BME280;3778;42.572;23.426;2023-02-17T12:21:04;94172.19;;;-146.70;30.10
7474;BME280;3778;42.572;23.426;2023-02-17T12:23:51;94176.38;;;-146.70;30.00
7474;BME280;3778;42.572;23.426;2023-02-17T12:26:28;94176.38;;;-146.70;30.39
7474;BME280;3778;42.572;23.426;2023-02-17T12:29:16;94124.28;;;-146.70;30.10
7474;BME280;3778;42.572;23.426;2023-02-17T12:32:02;94207.63;;;-146.70;30.09
7474;BME280;3778;42.572;23.426;2023-02-17T12:34:35;94105.53;;;-146.70;29.95
7474;BME280;3778;42.572;23.426;2023-02-17T12:37:05;94061.75;;;-146.70;29.53
7474;BME280;3778;42.572;23.426;2023-02-17T12:39:40;93999.25;;;-146.70;29.33
7474;BME280;3778;42.572;23.426;2023-02-17T12:42:13;94018.00;;;-146.70;29.45
7474;BME280;3778;42.572;23.426;2023-02-17T12:44:45;93943.00;;;-146.70;29.10
7474;BME280;3778;42.572;23.426;2023-02-17T12:47:15;93947.16;;;-146.70;29.31
7474;BME280;3778;42.572;23.426;2023-02-17T12:49:48;93959.66;;;-146.70;29.32
7474;BME280;3778;42.572;23.426;2023-02-17T12:52:18;93974.25;;;-146.70;29.31
7474;BME280;3778;42.572;23.426;2023-02-17T12:54:49;93990.91;;;-146.70;29.44
7474;BME280;3778;42.572;23.426;2023-02-17T12:57:21;93940.91;;;-146.70;29.45
7474;BME280;3778;42.572;23.426;2023-02-17T12:59:51;93995.09;;;-146.70;29.50
7474;BME280;3778;42.572;23.426;2023-02-17T13:02:20;93972.16;;;-146.70;29.59
7474;BME280;3778;42.572;23.426;2023-02-17T13:04:50;93963.84;;;-146.70;29.57
7474;BME280;3778;42.572;23.426;2023-02-17T13:07:25;93934.66;;;-146.70;29.39
7474;BME280;3778;42.572;23.426;2023-02-17T13:09:58;93953.41;;;-146.70;29.42